createdAt,value
2023-03-17T00:01:25.097Z,56.01
2023-03-17T00:03:52.930Z,57.29
2023-03-17T00:06:27.871Z,57.14
2023-03-17T00:08:55.904Z,57.62
2023-03-17T00:11:23.743Z,57.94
2023-03-17T00:13:51.540Z,56.99
2023-03-17T00:16:22.063Z,57.17
2023-03-17T00:18:55.936Z,57.22
2023-03-17T00:21:28.052Z,57.73
2023-03-17T00:23:56.653Z,57.45
2023-03-17T00:26:25.424Z,57.18
2023-03-17T00:28:54.404Z,56.99
2023-03-17T00:31:24.835Z,59.39
2023-03-17T00:33:56.090Z,58.44
2023-03-17T00:36:28.034Z,57.95
2023-03-17T00:38:56.109Z,58.26
2023-03-17T00:41:24.339Z,57.45
2023-03-17T00:43:52.147Z,58.10
2023-03-17T00:46:24.502Z,59.48
2023-03-17T00:48:52.793Z,60.62
2023-03-17T00:51:22.134Z,58.68
2023-03-17T00:53:49.988Z,59.22
2023-03-17T00:56:20.722Z,57.48
2023-03-17T00:58:49.765Z,57.60
2023-03-17T01:01:18.434Z,57.47
2023-03-17T01:03:46.882Z,58.44
2023-03-17T01:06:16.221Z,58.90
2023-03-17T01:08:45.796Z,57.81
2023-03-17T01:11:19.623Z,57.94
2023-03-17T01:13:47.748Z,57.14
2023-03-17T01:16:17.135Z,58.53
2023-03-17T01:18:45.596Z,58.26
2023-03-17T01:21:13.989Z,57.84
2023-03-17T01:23:41.979Z,57.93
2023-03-17T01:26:11.732Z,59.84
2023-03-17T01:28:39.505Z,57.76
2023-03-17T01:31:07.336Z,59.55
2023-03-17T01:33:35.145Z,61.14
2023-03-17T01:36:03.034Z,59.85
2023-03-17T01:38:31.264Z,59.16
2023-03-17T01:40:59.258Z,59.79
2023-03-17T01:43:30.730Z,60.24
2023-03-17T01:46:27.553Z,60.83
2023-03-17T01:49:05.635Z,62.17
2023-03-17T01:51:37.805Z,61.62
2023-03-17T01:54:09.370Z,61.44
2023-03-17T01:56:39.389Z,62.47
2023-03-17T01:59:11.524Z,62.49
2023-03-17T02:01:45.227Z,60.58
2023-03-17T02:04:13.331Z,60.54
2023-03-17T02:06:56.877Z,60.89
2023-03-17T02:09:26.366Z,63.32
2023-03-17T02:11:54.571Z,62.34
2023-03-17T02:14:23.891Z,63.00
2023-03-17T02:16:52.062Z,61.95
2023-03-17T02:19:19.835Z,61.05
2023-03-17T02:21:51.350Z,62.33
2023-03-17T02:24:31.973Z,61.22
2023-03-17T02:27:05.622Z,63.03
2023-03-17T02:29:36.048Z,61.82
2023-03-17T02:32:04.392Z,61.11
2023-03-17T02:34:34.088Z,60.24
2023-03-17T02:37:03.285Z,61.67
2023-03-17T02:39:31.010Z,62.57
2023-03-17T02:41:58.752Z,61.21
2023-03-17T02:44:27.030Z,60.65
2023-03-17T02:46:54.892Z,60.17
2023-03-17T02:49:23.484Z,61.53
2023-03-17T02:51:51.357Z,62.79
2023-03-17T02:54:20.637Z,61.35
2023-03-17T02:56:48.510Z,61.50
2023-03-17T02:59:16.274Z,61.63
2023-03-17T03:01:44.161Z,61.90
2023-03-17T03:04:12.038Z,63.26
2023-03-17T03:06:39.961Z,62.31
2023-03-17T03:09:07.673Z,61.24
2023-03-17T03:11:37.021Z,62.61
2023-03-17T03:14:05.133Z,63.17
2023-03-17T03:16:33.398Z,63.34
2023-03-17T03:19:01.633Z,61.97
2023-03-17T03:21:30.736Z,62.49
2023-03-17T03:23:58.482Z,62.80
2023-03-17T03:26:26.209Z,62.38
2023-03-17T03:28:57.330Z,62.97
2023-03-17T03:31:25.402Z,61.92
2023-03-17T03:33:53.890Z,62.14
2023-03-17T03:36:21.763Z,64.24
2023-03-17T03:38:49.594Z,64.26
2023-03-17T03:41:17.658Z,64.33
2023-03-17T03:43:45.609Z,64.34
2023-03-17T03:46:15.773Z,65.93
2023-03-17T03:48:43.684Z,65.59
2023-03-17T03:51:11.473Z,64.52
2023-03-17T03:53:39.189Z,64.78
2023-03-17T03:56:07.810Z,64.55
2023-03-17T03:58:35.657Z,64.03
2023-03-17T04:01:05.466Z,63.41
2023-03-17T04:03:34.806Z,63.89
2023-03-17T04:06:03.474Z,64.13
2023-03-17T04:08:32.679Z,62.68
2023-03-17T04:11:00.631Z,64.93
2023-03-17T04:13:28.270Z,64.30
2023-03-17T04:15:56.416Z,65.69
2023-03-17T04:18:24.187Z,65.09
2023-03-17T04:20:53.276Z,65.52
2023-03-17T04:23:21.006Z,63.50
2023-03-17T04:25:50.892Z,63.55
2023-03-17T04:28:18.645Z,65.09
2023-03-17T04:30:46.377Z,65.81
2023-03-17T04:33:14.120Z,65.86
2023-03-17T04:35:41.908Z,63.89
2023-03-17T04:38:12.867Z,67.29
2023-03-17T04:40:40.792Z,66.65
2023-03-17T04:43:10.223Z,67.59
2023-03-17T04:45:38.457Z,65.54
2023-03-17T04:48:06.865Z,65.77
2023-03-17T04:50:34.643Z,66.37
2023-03-17T04:53:02.404Z,67.52
2023-03-17T04:55:31.671Z,67.12
2023-03-17T04:57:59.390Z,64.86
2023-03-17T05:00:28.014Z,66.23
2023-03-17T05:02:56.041Z,66.59
2023-03-17T05:05:23.769Z,66.43
2023-03-17T05:07:51.428Z,66.82
2023-03-17T05:10:19.342Z,66.52
2023-03-17T05:12:48.467Z,64.49
2023-03-17T05:15:16.478Z,66.08
2023-03-17T05:17:44.153Z,66.26
2023-03-17T05:20:12.917Z,67.24
2023-03-17T05:22:41.185Z,66.28
2023-03-17T05:25:09.574Z,64.95
2023-03-17T05:27:37.600Z,65.12
2023-03-17T05:30:08.363Z,65.24
2023-03-17T05:32:36.447Z,66.03
2023-03-17T05:35:06.142Z,66.19
2023-03-17T05:37:33.876Z,66.53
2023-03-17T05:40:01.603Z,66.08
2023-03-17T05:42:29.297Z,66.14
2023-03-17T05:44:56.964Z,64.99
2023-03-17T05:47:26.998Z,63.96
2023-03-17T05:49:54.862Z,64.92
2023-03-17T05:52:22.704Z,66.29
2023-03-17T05:54:51.962Z,65.06
2023-03-17T05:57:19.706Z,64.15
2023-03-17T05:59:47.772Z,64.63
2023-03-17T06:02:15.729Z,63.14
2023-03-17T06:04:44.838Z,64.11
2023-03-17T06:07:13.093Z,64.67
2023-03-17T06:09:41.686Z,64.31
2023-03-17T06:12:10.218Z,64.60
2023-03-17T06:14:37.936Z,63.18
2023-03-17T06:17:06.253Z,64.32
2023-03-17T06:19:33.976Z,64.49
2023-03-17T06:22:03.165Z,61.94
2023-03-17T06:24:31.286Z,61.37
2023-03-17T06:26:59.002Z,64.63
2023-03-17T06:29:28.697Z,63.55
2023-03-17T06:31:58.156Z,62.35
2023-03-17T06:34:29.134Z,62.95
2023-03-17T06:36:56.813Z,63.02
2023-03-17T06:39:26.647Z,62.87
2023-03-17T06:41:54.646Z,63.14
2023-03-17T06:44:22.328Z,63.63
2023-03-17T06:46:50.222Z,62.58
2023-03-17T06:49:18.080Z,61.37
2023-03-17T06:51:45.787Z,60.06
2023-03-17T06:54:13.941Z,55.17
2023-03-17T06:56:44.310Z,49.66
2023-03-17T06:59:13.269Z,48.95
2023-03-17T07:01:41.034Z,49.99
2023-03-17T07:04:09.468Z,45.67
2023-03-17T07:06:37.568Z,47.34
2023-03-17T07:09:05.734Z,46.86
2023-03-17T07:11:33.539Z,48.72
2023-03-17T07:14:03.646Z,51.55
2023-03-17T07:16:32.923Z,50.66
2023-03-17T07:19:02.100Z,48.64
2023-03-17T07:21:29.783Z,46.90
2023-03-17T07:23:57.472Z,50.22
2023-03-17T07:26:25.221Z,45.71
2023-03-17T07:28:52.997Z,47.87
2023-03-17T07:31:23.372Z,48.61
2023-03-17T07:33:51.860Z,53.36
2023-03-17T07:36:19.628Z,50.01
2023-03-17T07:38:47.409Z,49.68
2023-03-17T07:41:15.205Z,47.79
2023-03-17T07:43:43.401Z,49.10
2023-03-17T07:46:11.257Z,52.09
2023-03-17T07:48:42.192Z,50.65
2023-03-17T07:51:14.970Z,49.73
2023-03-17T07:53:43.086Z,45.44
2023-03-17T07:56:10.990Z,44.39
2023-03-17T07:58:38.756Z,43.48
2023-03-17T08:01:08.486Z,44.53
2023-03-17T08:03:38.163Z,47.55
2023-03-17T08:06:09.648Z,44.52
2023-03-17T08:08:37.375Z,42.54
2023-03-17T08:11:07.690Z,39.73
2023-03-17T08:13:36.055Z,43.06
2023-03-17T08:16:03.801Z,44.43
2023-03-17T08:18:32.041Z,41.38
2023-03-17T08:21:00.006Z,39.28
2023-03-17T08:23:29.126Z,37.09
2023-03-17T08:26:00.605Z,38.76
2023-03-17T08:28:28.733Z,37.63
2023-03-17T08:31:06.596Z,37.15
2023-03-17T08:33:34.483Z,36.56
2023-03-17T08:36:06.337Z,36.02
2023-03-17T08:38:35.654Z,38.75
2023-03-17T08:41:03.955Z,38.66
2023-03-17T08:43:32.091Z,36.89
2023-03-17T08:46:03.526Z,38.11
2023-03-17T08:48:31.911Z,37.00
2023-03-17T08:50:59.641Z,33.47
2023-03-17T08:53:27.381Z,32.94
2023-03-17T08:55:57.964Z,31.65
2023-03-17T08:58:26.052Z,30.63
2023-03-17T09:00:54.285Z,29.70
2023-03-17T09:03:22.540Z,29.31
2023-03-17T09:05:51.442Z,31.65
2023-03-17T09:08:19.897Z,33.05
2023-03-17T09:10:48.456Z,32.82
2023-03-17T09:13:17.648Z,31.54
2023-03-17T09:15:45.984Z,36.12
2023-03-17T09:18:14.574Z,38.42
2023-03-17T09:20:42.463Z,38.97
2023-03-17T09:23:11.770Z,40.79
2023-03-17T09:25:41.386Z,41.65
2023-03-17T09:28:09.246Z,42.00
2023-03-17T09:30:38.370Z,43.89
2023-03-17T09:33:06.345Z,42.40
2023-03-17T09:35:34.172Z,43.31
2023-03-17T09:38:02.215Z,42.78
2023-03-17T09:40:33.747Z,43.83
2023-03-17T09:43:12.661Z,44.09
2023-03-17T09:45:43.744Z,43.77
2023-03-17T09:48:33.605Z,44.30
2023-03-17T09:51:04.809Z,44.94
2023-03-17T09:53:36.168Z,43.80
2023-03-17T09:56:09.713Z,45.27
2023-03-17T09:58:39.151Z,44.23
2023-03-17T10:01:12.838Z,44.56
2023-03-17T10:03:40.973Z,45.08
2023-03-17T10:06:34.900Z,44.06
2023-03-17T10:09:12.718Z,45.26
2023-03-17T10:11:42.409Z,45.25
2023-03-17T10:14:24.235Z,43.88
2023-03-17T10:16:59.265Z,44.35
2023-03-17T10:19:31.662Z,44.01
2023-03-17T10:22:04.194Z,45.62
2023-03-17T10:24:33.961Z,44.03
2023-03-17T10:27:06.328Z,43.67
2023-03-17T10:29:34.877Z,44.54
2023-03-17T10:32:04.596Z,42.25
2023-03-17T10:34:36.582Z,44.10
2023-03-17T10:37:07.698Z,42.90
2023-03-17T10:39:44.747Z,43.17
2023-03-17T10:42:15.497Z,42.00
2023-03-17T10:44:46.152Z,42.19
2023-03-17T10:47:34.213Z,42.66
2023-03-17T10:50:17.802Z,43.02
2023-03-17T10:52:47.446Z,42.94
2023-03-17T10:55:17.458Z,42.38
2023-03-17T10:57:53.666Z,43.20
2023-03-17T11:00:23.328Z,42.08
2023-03-17T11:02:58.171Z,41.49
2023-03-17T11:05:29.109Z,41.32
2023-03-17T11:08:07.315Z,42.75
2023-03-17T11:10:39.635Z,43.22
2023-03-17T11:13:08.236Z,43.36
2023-03-17T11:15:42.208Z,41.50
2023-03-17T11:18:18.063Z,42.25
2023-03-17T11:20:51.468Z,41.83
2023-03-17T11:23:29.113Z,41.00
2023-03-17T11:26:08.687Z,40.49
2023-03-17T11:28:41.107Z,41.96
2023-03-17T11:31:15.251Z,44.40
2023-03-17T11:33:57.322Z,43.02
2023-03-17T11:36:41.124Z,42.97
2023-03-17T11:39:14.999Z,43.08
2023-03-17T11:41:51.032Z,42.40
2023-03-17T11:44:40.344Z,43.55
2023-03-17T11:47:16.586Z,42.99
2023-03-17T11:49:54.142Z,42.71
2023-03-17T11:52:27.229Z,43.69
2023-03-17T11:55:04.690Z,43.00
2023-03-17T11:57:39.580Z,43.25
2023-03-17T12:00:16.676Z,42.87
2023-03-17T12:02:48.651Z,41.80
2023-03-17T12:05:24.031Z,42.44
2023-03-17T12:07:55.071Z,43.21
2023-03-17T12:10:26.341Z,42.19
2023-03-17T12:12:57.842Z,43.43
2023-03-17T12:15:31.935Z,43.75
2023-03-17T12:18:06.949Z,43.27
2023-03-17T12:20:46.551Z,42.94
2023-03-17T12:23:21.660Z,43.41
2023-03-17T12:25:59.331Z,43.50
2023-03-17T12:28:32.952Z,44.47
2023-03-17T12:31:06.857Z,43.38
2023-03-17T12:33:43.653Z,44.14
2023-03-17T12:36:16.210Z,43.24
2023-03-17T12:38:47.911Z,43.98
2023-03-17T12:41:28.677Z,43.64
2023-03-17T12:44:05.980Z,44.06
2023-03-17T12:46:53.008Z,43.47
2023-03-17T12:50:02.996Z,43.14
2023-03-17T12:52:50.306Z,42.81
2023-03-17T12:55:19.311Z,42.10
2023-03-17T12:57:48.781Z,42.42
2023-03-17T13:00:20.973Z,42.30
2023-03-17T13:02:51.869Z,42.55
2023-03-17T13:05:32.884Z,42.78
2023-03-17T13:08:05.596Z,43.02
2023-03-17T13:10:39.871Z,42.75
2023-03-17T13:13:36.199Z,41.95
2023-03-17T13:16:06.787Z,41.66
2023-03-17T13:18:53.108Z,41.37
2023-03-17T13:21:29.161Z,41.53
2023-03-17T13:24:15.691Z,41.46
2023-03-17T13:27:11.142Z,42.40
2023-03-17T13:29:42.740Z,41.87
2023-03-17T13:32:33.453Z,41.63
2023-03-17T13:35:41.193Z,41.91
2023-03-17T13:38:30.002Z,42.46
2023-03-17T13:41:26.068Z,41.72
2023-03-17T13:44:08.602Z,40.67
2023-03-17T13:46:44.058Z,41.92
2023-03-17T13:49:22.102Z,42.08
2023-03-17T13:51:59.932Z,42.25
2023-03-17T13:54:34.623Z,41.63
2023-03-17T13:57:26.496Z,42.15
2023-03-17T14:00:03.896Z,42.84
2023-03-17T14:02:35.077Z,42.65
2023-03-17T14:05:06.150Z,43.71
2023-03-17T14:07:44.772Z,43.18
2023-03-17T14:10:19.472Z,42.76
2023-03-17T14:12:53.510Z,41.91
2023-03-17T14:15:27.328Z,42.79
2023-03-17T14:18:01.572Z,42.47
2023-03-17T14:20:30.031Z,43.07
2023-03-17T14:23:01.322Z,42.78
2023-03-17T14:25:33.996Z,42.28
2023-03-17T14:28:09.336Z,42.57
2023-03-17T14:30:39.298Z,42.56
2023-03-17T14:33:14.954Z,43.25
2023-03-17T14:35:44.008Z,42.81
2023-03-17T14:38:19.853Z,42.79
2023-03-17T14:40:48.469Z,42.66
2023-03-17T14:43:18.602Z,42.41
2023-03-17T14:45:51.788Z,41.56
2023-03-17T14:48:24.415Z,43.34
2023-03-17T14:50:54.974Z,43.24
2023-03-17T14:53:24.582Z,43.20
2023-03-17T14:55:54.160Z,43.68
2023-03-17T14:58:28.309Z,43.68
2023-03-17T15:00:59.248Z,43.57
2023-03-17T15:03:33.087Z,43.53
2023-03-17T15:06:07.894Z,43.27
2023-03-17T15:08:46.220Z,42.83
2023-03-17T15:11:23.413Z,42.88
2023-03-17T15:13:57.040Z,43.50
2023-03-17T15:16:29.418Z,43.73
2023-03-17T15:19:06.882Z,43.94
2023-03-17T15:21:38.943Z,43.60
2023-03-17T15:24:20.951Z,43.49
2023-03-17T15:26:48.776Z,43.75
2023-03-17T15:29:17.851Z,44.19
2023-03-17T15:31:45.709Z,43.81
2023-03-17T15:34:15.425Z,44.32
2023-03-17T15:36:47.451Z,43.67
2023-03-17T15:39:15.197Z,43.63
2023-03-17T15:41:42.863Z,44.15
2023-03-17T15:44:10.844Z,44.07
2023-03-17T15:46:39.951Z,43.76
2023-03-17T15:49:11.617Z,43.93
2023-03-17T15:51:39.569Z,44.28
2023-03-17T15:54:07.272Z,44.80
2023-03-17T15:56:35.528Z,44.93
2023-03-17T15:59:03.308Z,44.83
2023-03-17T16:01:31.149Z,44.14
2023-03-17T16:04:00.299Z,43.24
2023-03-17T16:06:28.089Z,44.24
2023-03-17T16:08:55.864Z,44.09
2023-03-17T16:11:28.282Z,44.81
2023-03-17T16:13:56.530Z,44.84
2023-03-17T16:16:30.652Z,44.86
2023-03-17T16:19:00.333Z,45.27
2023-03-17T16:21:30.653Z,45.37
2023-03-17T16:23:58.897Z,45.69
2023-03-17T16:26:26.583Z,45.69
2023-03-17T16:28:54.305Z,45.65
2023-03-17T16:31:25.133Z,46.47
2023-03-17T16:33:54.183Z,46.99
2023-03-17T16:36:25.126Z,46.72
2023-03-17T16:38:53.092Z,45.96
2023-03-17T16:41:22.969Z,46.49
2023-03-17T16:43:53.909Z,46.71
2023-03-17T16:46:22.467Z,47.87
2023-03-17T16:48:51.293Z,46.69
2023-03-17T16:51:19.587Z,46.46
2023-03-17T16:53:48.810Z,47.55
2023-03-17T16:56:19.156Z,46.38
2023-03-17T16:58:47.831Z,46.55
2023-03-17T17:01:19.137Z,47.53
2023-03-17T17:03:47.068Z,47.55
2023-03-17T17:06:15.876Z,46.77
2023-03-17T17:08:44.850Z,47.82
2023-03-17T17:11:15.037Z,47.25
2023-03-17T17:13:43.821Z,48.45
2023-03-17T17:16:20.992Z,49.56
2023-03-17T17:18:48.876Z,51.07
2023-03-17T17:21:16.745Z,51.31
2023-03-17T17:23:44.602Z,49.70
2023-03-17T17:26:13.892Z,50.44
2023-03-17T17:28:41.997Z,51.81
2023-03-17T17:31:10.191Z,50.53
2023-03-17T17:33:38.834Z,49.54
2023-03-17T17:36:12.462Z,49.65
2023-03-17T17:38:40.418Z,50.00
2023-03-17T17:41:09.022Z,49.82
2023-03-17T17:43:38.191Z,50.24
2023-03-17T17:46:11.977Z,51.57
2023-03-17T17:48:39.807Z,51.79
2023-03-17T17:51:07.766Z,52.89
2023-03-17T17:53:35.668Z,54.15
2023-03-17T17:56:04.806Z,52.99
2023-03-17T17:58:32.875Z,53.89
2023-03-17T18:01:04.371Z,56.18
2023-03-17T18:03:32.530Z,58.04
2023-03-17T18:06:01.033Z,58.68
2023-03-17T18:08:28.951Z,58.96
2023-03-17T18:10:57.339Z,56.68
2023-03-17T18:13:25.471Z,56.72
2023-03-17T18:15:53.486Z,59.98
2023-03-17T18:18:22.696Z,60.86
2023-03-17T18:20:50.856Z,58.82
2023-03-17T18:23:20.221Z,58.53
2023-03-17T18:25:48.445Z,57.95
2023-03-17T18:28:17.210Z,59.89
2023-03-17T18:30:45.710Z,59.13
2023-03-17T18:33:17.477Z,62.90
2023-03-17T18:35:48.443Z,62.45
2023-03-17T18:38:16.393Z,61.97
2023-03-17T18:40:44.678Z,61.55
2023-03-17T18:43:12.610Z,60.66
2023-03-17T18:45:40.524Z,60.49
2023-03-17T18:48:08.313Z,64.56
2023-03-17T18:50:37.143Z,63.22
2023-03-17T18:53:07.070Z,61.77
2023-03-17T18:55:34.889Z,63.46
2023-03-17T18:58:02.647Z,61.82
2023-03-17T19:00:30.807Z,59.64
2023-03-17T19:02:58.892Z,59.98
2023-03-17T19:05:26.963Z,58.82
2023-03-17T19:07:55.044Z,58.77
2023-03-17T19:10:24.248Z,57.72
2023-03-17T19:12:52.094Z,56.58
2023-03-17T19:15:20.712Z,56.65
2023-03-17T19:17:50.405Z,55.72
2023-03-17T19:20:19.789Z,58.21
2023-03-17T19:22:47.573Z,60.50
2023-03-17T19:25:16.550Z,59.33
2023-03-17T19:27:45.884Z,57.78
2023-03-17T19:30:14.730Z,57.50
2023-03-17T19:32:42.661Z,56.79
2023-03-17T19:35:11.680Z,56.18
2023-03-17T19:37:39.539Z,56.25
2023-03-17T19:40:10.492Z,55.54
2023-03-17T19:42:38.256Z,56.70
2023-03-17T19:45:09.159Z,56.70
2023-03-17T19:47:36.933Z,56.83
2023-03-17T19:50:05.611Z,56.57
2023-03-17T19:52:33.321Z,55.81
2023-03-17T19:55:04.322Z,55.48
2023-03-17T19:57:32.894Z,55.00
2023-03-17T20:00:00.929Z,55.16
2023-03-17T20:02:30.193Z,55.02
2023-03-17T20:04:57.936Z,54.70
2023-03-17T20:07:26.063Z,55.67
2023-03-17T20:09:54.363Z,55.84
2023-03-17T20:12:22.461Z,55.66
2023-03-17T20:14:50.487Z,55.63
2023-03-17T20:17:18.573Z,54.93
2023-03-17T20:19:47.681Z,55.76
2023-03-17T20:22:15.866Z,56.65
2023-03-17T20:24:43.630Z,57.46
2023-03-17T20:27:15.205Z,57.66
2023-03-17T20:29:43.170Z,57.42
2023-03-17T20:32:11.498Z,56.43
2023-03-17T20:34:39.432Z,57.23
2023-03-17T20:37:08.605Z,57.85
2023-03-17T20:39:37.262Z,58.55
2023-03-17T20:42:10.172Z,62.14
2023-03-17T20:44:38.054Z,60.16
2023-03-17T20:47:05.876Z,59.30
2023-03-17T20:49:34.065Z,59.83
2023-03-17T20:52:02.071Z,60.43
2023-03-17T20:54:31.218Z,61.24
2023-03-17T20:56:59.210Z,60.17
2023-03-17T20:59:26.918Z,59.74
2023-03-17T21:01:54.751Z,60.57
2023-03-17T21:04:22.606Z,61.42
2023-03-17T21:06:50.397Z,61.62
2023-03-17T21:09:18.387Z,61.30
2023-03-17T21:11:49.164Z,60.26
2023-03-17T21:14:17.349Z,60.98
2023-03-17T21:16:47.122Z,60.42
2023-03-17T21:19:17.172Z,60.58
2023-03-17T21:21:45.699Z,61.82
2023-03-17T21:24:25.392Z,62.74
2023-03-17T21:26:54.483Z,63.95
2023-03-17T21:29:22.820Z,64.52
2023-03-17T21:31:50.695Z,64.40
2023-03-17T21:34:18.879Z,64.84
2023-03-17T21:36:47.006Z,64.59
2023-03-17T21:39:15.061Z,65.73
2023-03-17T21:41:43.575Z,63.73
2023-03-17T21:44:15.877Z,63.34
2023-03-17T21:46:43.812Z,62.90
2023-03-17T21:49:13.249Z,63.60
2023-03-17T21:51:40.977Z,66.55
2023-03-17T21:54:08.747Z,64.24
2023-03-17T21:56:36.537Z,65.08
2023-03-17T21:59:05.781Z,63.89
2023-03-17T22:01:35.793Z,64.53
2023-03-17T22:04:03.569Z,64.45
2023-03-17T22:06:31.317Z,64.27
2023-03-17T22:08:59.229Z,64.45
2023-03-17T22:11:26.934Z,63.44
2023-03-17T22:13:56.004Z,62.79
2023-03-17T22:16:24.400Z,64.58
2023-03-17T22:18:53.829Z,64.15
2023-03-17T22:21:21.992Z,63.59
2023-03-17T22:23:50.024Z,62.16
2023-03-17T22:26:19.081Z,62.40
2023-03-17T22:28:48.395Z,61.61
2023-03-17T22:31:18.293Z,60.93
2023-03-17T22:33:46.483Z,58.99
2023-03-17T22:36:16.127Z,59.67
2023-03-17T22:38:43.857Z,58.38
2023-03-17T22:41:15.255Z,57.80
2023-03-17T22:43:43.148Z,57.86
2023-03-17T22:46:11.888Z,56.79
2023-03-17T22:48:40.297Z,56.45
2023-03-17T22:51:10.602Z,56.69
2023-03-17T22:53:40.916Z,57.21
2023-03-17T22:56:10.051Z,57.23
2023-03-17T22:58:38.117Z,56.67
2023-03-17T23:01:06.872Z,56.72
2023-03-17T23:03:35.437Z,57.04
2023-03-17T23:06:05.695Z,57.50
2023-03-17T23:08:36.140Z,57.03
2023-03-17T23:11:08.829Z,57.75
2023-03-17T23:13:37.274Z,57.88
2023-03-17T23:16:06.484Z,58.01
2023-03-17T23:18:34.719Z,58.21
2023-03-17T23:21:04.673Z,57.79
2023-03-17T23:23:32.894Z,58.15
2023-03-17T23:26:00.698Z,59.26
2023-03-17T23:28:29.840Z,58.01
2023-03-17T23:30:58.186Z,60.14
2023-03-17T23:33:26.054Z,59.32
2023-03-17T23:35:53.894Z,59.56
2023-03-17T23:38:21.974Z,59.68
2023-03-17T23:40:50.828Z,60.39
2023-03-17T23:43:19.518Z,58.94
2023-03-17T23:45:52.587Z,60.36
2023-03-17T23:48:23.359Z,61.05
2023-03-17T23:50:53.463Z,60.36
2023-03-17T23:53:22.512Z,60.57
2023-03-17T23:55:50.690Z,60.89
2023-03-17T23:58:18.996Z,60.77
